Hardwick, MA (01037)

5:35 AM EDT on July 25, 2017 (GMT -0400)
pine street | | Change Station

Elev 587 ft 42.35 °N, 72.14 °W | Updated 58 seconds ago

Overcast
Overcast
54.9 °F
Feels Like 54.9 °F
N
0.0
Wind Variable Wind from NW
Gusts 0.0 mph

Today
High -- | Low -- °F
--% Chance of Precip.
Yesterday
High -- | Low -- °F
Precip. -- in
Pressure 30.04 in
Visibility 10.0 miles
Clouds Overcast 1300 ft
Dew Point 54 °F
Humidity 96%
Rainfall 0.00 in
Snow Depth Not available.
5:34 AM 8:15 PM
Waxing Crescent, 5% visible
METAR KORE 250852Z AUTO 35003KT 10SM OVC013 13/12 A3004 RMK AO2 SLP173 60000 T01280122 53010 TSNO
Pressure 30.04 in
Visibility 10.0 miles
Clouds Overcast 1300 ft
Dew Point 54 °F
Humidity 96%
Rainfall 0.00 in
Snow Depth Not available.
5:34 AM 8:15 PM
Waxing Crescent, 5% visible
METAR KORE 250852Z AUTO 35003KT 10SM OVC013 13/12 A3004 RMK AO2 SLP173 60000 T01280122 53010 TSNO

Get Severe Weather Alerts

Thanks for signing up!

Be on the lookout for a verification email in your inbox.

You'll start receiving the daily forecast at 6 AM.

×

10-Day Weather Forecast

Almanac

Astronomy

Jul. 25, 2017 Rise Set
Actual Time
Civil Twilight
Nautical Twilight
Astronomical Twilight
Moon
Length of Visible Light
Length of Day
Tomorrow will be .
, % of the Moon is Illuminated

Today's Extremes

State Highs State Lows

Community

WunderPhotos

Category 6

Welcome to Category 6. This is the collective home for Weather Underground's featured writeups by Dr. Jeff Masters (right), Bob Henson (left), Chris Burt, and other regular contributors.

Nearby

Air Quality

  Air Quality AQ Index Pollutant
Not available.

Snow Depth

Station Depth Elevation

Earthquake Activity

City Distance Mag. Time & Date
Minimum magnitude displayed is 2.5.

Coastal Water Temperatures

Place Temperature

Stations

Nearby Weather Stations

Station Location Temp. Windchill Dew Point Humidity Wind Precip. Elev Updated Type
                   

Watches & Warnings

There are currently no watches in effect.